LOU weather

Bowman Field
Louisville, Kentucky, United States

Public forecast

Using degrees Fahrenheit for public forecast. Weather courtesy of forecast.io.

METAR (pilot weather report)

Retrieved 2019/05/24 01:53 UTC (25 minutes ago):

KLOU 240153Z 22005KT 10SM CLR 24/21 A3009 RMK AO2 SLP184 T02440206

TAF (pilot weather forecast)

Forecast is more than 12 hours old.

Closest forecast is Louisville International Standiford Field, 4.7 nm (8.7 km) SW. Retrieved 2019/05/23 00:12 UTC (1 day ago):

TAF KSDF 232310Z 2400/2506 24012KT P6SM VCTS BKN040CB BKN200 FM240200 23006KT P6SM SCT250 FM241300 24006KT P6SM SCT250